Time;durP1;ratioP1;P1;durP2;ratioP2;P2;SDS_P1;SDS_P2;PMS_P1;PMS_P2;Temp;Humidity;BMP_temperature;BMP_pressure;BME280_temperature;BME280_humidity;BME280_pressure;Samples;Min_cycle;Max_cycle;Signal;HPM_P1;HPM_P2
2022/08/03 00:01:16;;;;;;;2.00;1.70;;;;;;;19.89;50.20;95771.84;4962686;28;20276;-79
2022/08/03 00:03:42;;;;;;;2.40;2.20;;;;;;;19.90;50.16;95768.19;4971901;28;20739;-80
2022/08/03 00:06:07;;;;;;;3.20;2.50;;;;;;;19.90;49.94;95765.56;4981016;28;20187;-80
2022/08/03 00:08:32;;;;;;;3.30;1.98;;;;;;;19.88;50.21;95765.75;4995105;28;20291;-80
2022/08/03 00:10:58;;;;;;;2.25;1.90;;;;;;;19.88;49.82;95762.28;4953825;28;20193;-80
2022/08/03 00:13:23;;;;;;;2.65;2.20;;;;;;;19.86;50.00;95754.59;4957233;28;20212;-79
2022/08/03 00:15:49;;;;;;;6.60;2.38;;;;;;;19.83;50.40;95762.91;4977905;28;20187;-79
2022/08/03 00:18:14;;;;;;;2.90;2.17;;;;;;;19.81;50.23;95759.66;4979866;28;20184;-79
2022/08/03 00:20:39;;;;;;;3.15;2.10;;;;;;;19.77;50.78;95758.41;4989794;28;20258;-80
2022/08/03 00:23:05;;;;;;;2.15;1.95;;;;;;;19.74;50.82;95764.09;4976228;28;20235;-78
2022/08/03 00:25:31;;;;;;;2.35;2.15;;;;;;;19.74;50.13;95758.81;4955223;28;20251;-78
2022/08/03 00:27:56;;;;;;;2.17;2.00;;;;;;;19.75;50.00;95760.44;4980129;28;20233;-79
2022/08/03 00:30:21;;;;;;;3.45;2.45;;;;;;;19.73;49.86;95759.84;4971825;28;20202;-79
2022/08/03 00:32:47;;;;;;;2.35;2.15;;;;;;;19.75;49.86;95758.63;4970080;28;20228;-79
2022/08/03 00:35:12;;;;;;;5.47;2.33;;;;;;;19.76;49.91;95757.59;4992328;28;20204;-79
2022/08/03 00:37:37;;;;;;;3.55;2.40;;;;;;;19.75;49.78;95758.63;4969524;28;20704;-79
2022/08/03 00:40:03;;;;;;;3.90;2.08;;;;;;;19.77;49.89;95758.41;4969139;28;20645;-80
2022/08/03 00:42:28;;;;;;;2.35;2.15;;;;;;;19.74;49.85;95750.91;4955728;28;20247;-79
2022/08/03 00:44:54;;;;;;;2.38;2.17;;;;;;;19.73;50.16;95749.31;4970733;28;20216;-79
2022/08/03 00:47:19;;;;;;;2.10;1.90;;;;;;;19.71;49.67;95748.69;4970586;28;20200;-78
2022/08/03 00:49:44;;;;;;;3.78;2.13;;;;;;;19.73;49.87;95749.31;4969299;28;20680;-79
2022/08/03 00:52:10;;;;;;;4.13;2.17;;;;;;;19.67;50.20;95747.44;4976420;28;20184;-79
2022/08/03 00:54:39;;;;;;;3.00;2.20;;;;;;;19.68;49.62;95746.44;4969573;28;20242;-79
2022/08/03 00:57:05;;;;;;;3.10;2.38;;;;;;;19.63;49.72;95741.78;4970839;28;20192;-80
2022/08/03 00:59:31;;;;;;;2.30;2.10;;;;;;;19.61;50.13;95737.69;4960428;28;20244;-80
2022/08/03 01:01:56;;;;;;;3.35;1.80;;;;;;;19.57;49.99;95737.31;4954484;28;20204;-79
2022/08/03 01:04:22;;;;;;;2.75;2.03;;;;;;;19.58;49.89;95732.84;4969190;28;20780;-78
2022/08/03 01:07:17;;;;;;;1.88;1.77;;;;;;;19.57;49.70;95736.50;4971290;28;20327;-79
2022/08/03 01:09:52;;;;;;;2.28;2.08;;;;;;;19.61;49.74;95735.88;4987482;28;20180;-79
2022/08/03 01:12:30;;;;;;;2.20;2.00;;;;;;;19.56;49.98;95733.03;4962734;28;20279;-79
2022/08/03 01:15:09;;;;;;;2.20;2.00;;;;;;;19.53;50.02;95726.34;4976083;28;20188;-79
2022/08/03 01:17:45;;;;;;;3.60;2.00;;;;;;;19.50;50.19;95731.97;4975170;28;20192;-80
2022/08/03 01:20:12;;;;;;;2.38;2.17;;;;;;;19.48;50.04;95726.09;4972888;28;20192;-79
2022/08/03 01:22:48;;;;;;;2.47;2.00;;;;;;;19.48;49.83;95728.72;4992506;28;20705;-80
2022/08/03 01:25:42;;;;;;;2.85;2.05;;;;;;;19.49;50.09;95729.53;4987034;28;20187;-79
2022/08/03 01:28:15;;;;;;;2.90;1.88;;;;;;;19.44;49.99;95722.25;4987585;28;20195;-79
2022/08/03 01:30:43;;;;;;;3.17;1.90;;;;;;;19.43;50.21;95725.06;4961145;28;20195;-79
2022/08/03 01:33:21;;;;;;;1.83;1.70;;;;;;;19.41;49.60;95717.38;4966594;28;20216;-79
2022/08/03 01:35:49;;;;;;;5.70;2.40;;;;;;;19.41;50.07;95713.91;4954935;28;20239;-79
2022/08/03 01:38:23;;;;;;;3.50;2.00;;;;;;;19.41;50.01;95713.91;4962407;28;20541;-80
2022/08/03 01:40:52;;;;;;;2.42;1.85;;;;;;;19.40;49.83;95718.38;4972836;28;20184;-78
2022/08/03 01:43:18;;;;;;;2.72;1.83;;;;;;;19.34;50.13;95711.25;4984281;28;20280;-78
2022/08/03 01:45:44;;;;;;;2.05;1.95;;;;;;;19.35;50.13;95705.00;4976718;28;20215;-78
2022/08/03 01:48:11;;;;;;;2.20;2.05;;;;;;;19.34;50.36;95706.00;4973599;28;20184;-80
2022/08/03 01:50:37;;;;;;;2.45;1.75;;;;;;;19.35;50.34;95705.00;4957998;28;20295;-79
2022/08/03 01:53:03;;;;;;;2.28;2.05;;;;;;;19.36;50.24;95709.25;4993795;28;20239;-78
2022/08/03 01:55:30;;;;;;;2.28;2.08;;;;;;;19.33;50.22;95700.94;4991021;28;20168;-79
2022/08/03 01:57:57;;;;;;;3.10;2.10;;;;;;;19.31;50.13;95701.13;4981146;28;20183;-78
2022/08/03 02:00:24;;;;;;;1.88;1.77;;;;;;;19.29;50.31;95703.16;4982940;28;20211;-78
2022/08/03 02:02:50;;;;;;;2.47;2.28;;;;;;;19.27;50.33;95699.09;4980838;28;20602;-80
2022/08/03 02:05:17;;;;;;;2.10;1.90;;;;;;;19.28;50.10;95698.91;4953568;28;20203;-80
2022/08/03 02:07:44;;;;;;;2.45;1.67;;;;;;;19.33;50.06;95693.84;4973638;28;20673;-80
2022/08/03 02:10:11;;;;;;;3.55;2.00;;;;;;;19.27;50.10;95693.84;4982797;28;20188;-80
2022/08/03 02:12:42;;;;;;;5.13;2.10;;;;;;;19.22;50.21;95697.88;4956593;28;20210;-79
2022/08/03 02:15:08;;;;;;;2.13;1.92;;;;;;;19.20;50.48;95686.72;4977310;28;20188;-80
2022/08/03 02:17:33;;;;;;;2.67;2.15;;;;;;;19.19;50.37;95694.81;4978496;28;20196;-80
2022/08/03 02:20:00;;;;;;;2.15;1.95;;;;;;;19.17;50.50;95694.19;4972918;28;20210;-80
2022/08/03 02:22:26;;;;;;;2.17;1.85;;;;;;;19.15;50.75;95694.38;4969912;28;20204;-80
2022/08/03 02:24:51;;;;;;;3.70;1.92;;;;;;;19.14;50.53;95694.59;4970896;28;20187;-80
2022/08/03 02:27:25;;;;;;;3.33;2.28;;;;;;;19.15;50.44;95701.47;4988503;28;20199;-79
2022/08/03 02:29:55;;;;;;;2.03;1.85;;;;;;;19.11;50.31;95697.63;4971882;28;20270;-80
2022/08/03 02:32:33;;;;;;;2.00;1.90;;;;;;;19.10;50.45;95698.63;4963813;28;20195;-79
2022/08/03 02:34:59;;;;;;;1.98;1.88;;;;;;;19.09;50.70;95702.28;4974158;28;20222;-79
2022/08/03 02:37:28;;;;;;;3.10;1.83;;;;;;;19.13;50.38;95703.50;4978322;28;20184;-80
2022/08/03 02:39:58;;;;;;;2.10;1.90;;;;;;;19.12;50.44;95701.88;4969773;28;20251;-80
2022/08/03 02:42:24;;;;;;;2.47;1.95;;;;;;;19.14;50.56;95690.13;4970903;28;20684;-80
2022/08/03 02:44:52;;;;;;;2.08;1.73;;;;;;;19.07;50.57;95696.38;4992978;28;20192;-79
2022/08/03 02:47:20;;;;;;;4.30;1.70;;;;;;;19.06;50.37;95690.31;4953229;28;20200;-79
2022/08/03 02:49:47;;;;;;;2.00;1.90;;;;;;;19.06;50.77;95690.31;4971087;28;20628;-80
2022/08/03 02:52:12;;;;;;;3.25;2.00;;;;;;;19.06;50.42;95692.13;4970163;28;20193;-80
2022/08/03 02:54:38;;;;;;;2.13;1.83;;;;;;;19.02;50.65;95688.28;4976286;28;20191;-80
2022/08/03 02:57:06;;;;;;;2.28;2.05;;;;;;;19.03;50.47;95688.06;4968923;28;20619;-80
2022/08/03 02:59:32;;;;;;;2.33;2.10;;;;;;;19.04;50.86;95688.88;4955071;28;20183;-79
2022/08/03 03:01:59;;;;;;;2.85;2.25;;;;;;;19.01;50.77;95681.41;4968171;28;20232;-79
2022/08/03 03:04:25;;;;;;;2.38;2.17;;;;;;;19.02;50.92;95683.03;4955274;28;21010;-80
2022/08/03 03:06:51;;;;;;;2.50;2.03;;;;;;;18.95;50.67;95686.44;4969949;28;20223;-80
2022/08/03 03:09:16;;;;;;;2.65;2.30;;;;;;;19.00;50.90;95692.94;4952940;28;20665;-80
2022/08/03 03:11:43;;;;;;;2.63;1.83;;;;;;;18.96;50.73;95681.97;4979808;28;20191;-80
2022/08/03 03:14:09;;;;;;;5.90;2.33;;;;;;;18.97;50.72;95675.69;4972474;28;20212;-80
2022/08/03 03:16:35;;;;;;;2.15;2.05;;;;;;;18.95;50.75;95675.09;4956450;28;20203;-80
2022/08/03 03:19:01;;;;;;;2.45;1.98;;;;;;;18.95;50.87;95675.91;4981654;28;20566;-81
2022/08/03 03:21:27;;;;;;;2.28;2.08;;;;;;;18.92;50.76;95686.81;4972035;28;20200;-79
2022/08/03 03:23:53;;;;;;;2.53;2.30;;;;;;;18.93;50.97;95683.19;4971985;28;20295;-80
2022/08/03 03:26:19;;;;;;;2.50;2.00;;;;;;;18.90;51.21;95678.28;4973298;28;20599;-80
2022/08/03 03:28:44;;;;;;;2.75;2.13;;;;;;;18.88;50.78;95682.94;4962820;28;20204;-79
2022/08/03 03:31:10;;;;;;;2.80;1.83;;;;;;;18.87;51.01;95683.16;4971964;28;20190;-80
2022/08/03 03:33:36;;;;;;;2.50;2.20;;;;;;;18.87;51.20;95678.69;4972817;28;20821;-79
2022/08/03 03:36:03;;;;;;;4.63;2.25;;;;;;;18.84;51.16;95681.72;4969334;28;20192;-80
2022/08/03 03:38:28;;;;;;;5.00;1.98;;;;;;;18.83;51.53;95682.75;4987172;28;20191;-80
2022/08/03 03:40:54;;;;;;;2.55;2.35;;;;;;;18.81;51.27;95676.84;4973574;28;20279;-80
2022/08/03 03:43:22;;;;;;;3.83;2.30;;;;;;;18.82;51.21;95680.31;4970022;28;20217;-78
2022/08/03 03:45:48;;;;;;;2.47;2.28;;;;;;;18.80;51.17;95683.09;4969864;28;20235;-79
2022/08/03 03:48:13;;;;;;;2.70;1.92;;;;;;;18.85;50.97;95677.28;4993943;28;20195;-79
2022/08/03 03:50:41;;;;;;;2.28;1.90;;;;;;;18.87;51.16;95673.44;4962904;28;20191;-79
2022/08/03 03:53:10;;;;;;;2.55;2.17;;;;;;;18.87;50.79;95670.81;4987409;28;20208;-79
2022/08/03 03:55:37;;;;;;;2.33;2.13;;;;;;;18.89;50.70;95686.38;4968968;28;20184;-79
2022/08/03 03:58:03;;;;;;;5.90;2.35;;;;;;;18.90;50.68;95677.47;4994428;28;20180;-79
2022/08/03 04:00:29;;;;;;;2.85;2.30;;;;;;;18.90;51.03;95682.75;4977897;28;20187;-80
2022/08/03 04:02:54;;;;;;;3.17;2.10;;;;;;;18.90;51.18;95672.22;4979628;28;21063;-80
2022/08/03 04:11:19;;;;;;;3.92;2.50;;;;;;;19.06;50.65;95681.59;4972991;28;20617;-79
2022/08/03 04:13:58;;;;;;;4.10;2.30;;;;;;;19.14;50.28;95674.34;4975390;28;20310;-79
2022/08/03 04:16:36;;;;;;;3.92;2.30;;;;;;;19.18;49.98;95680.03;4954172;28;20191;-79
2022/08/03 04:19:05;;;;;;;2.45;2.08;;;;;;;19.24;50.24;95681.88;4960295;28;20187;-79
2022/08/03 04:21:31;;;;;;;2.00;1.80;;;;;;;19.27;50.26;95678.84;4969570;28;20576;-79
2022/08/03 04:24:00;;;;;;;2.03;1.92;;;;;;;19.34;49.76;95681.47;4969938;28;20690;-79
2022/08/03 04:26:28;;;;;;;2.65;2.33;;;;;;;19.35;49.77;95683.94;4953816;28;20569;-79
2022/08/03 04:28:54;;;;;;;2.30;2.10;;;;;;;19.43;49.51;95683.72;4952671;28;20216;-79
2022/08/03 04:31:21;;;;;;;2.38;1.88;;;;;;;19.44;49.63;95685.38;4961072;28;20239;-79
2022/08/03 04:33:50;;;;;;;4.40;2.08;;;;;;;19.57;49.40;95683.81;4970933;28;20638;-79
2022/08/03 04:36:19;;;;;;;2.33;1.98;;;;;;;19.64;49.07;95692.53;4967183;28;20680;-78
2022/08/03 04:38:53;;;;;;;2.20;2.00;;;;;;;19.74;48.48;95692.97;4975336;28;20200;-78
2022/08/03 04:41:20;;;;;;;2.42;2.00;;;;;;;19.83;48.45;95694.38;4963244;28;20178;-77
2022/08/03 04:43:46;;;;;;;3.05;2.28;;;;;;;19.96;48.25;95699.66;4970590;28;20377;-79
2022/08/03 04:46:11;;;;;;;2.25;2.05;;;;;;;20.06;47.61;95697.44;4979396;28;20188;-78
2022/08/03 04:48:38;;;;;;;2.03;1.75;;;;;;;20.20;47.27;95703.50;4969087;28;20260;-79
2022/08/03 04:51:03;;;;;;;2.22;2.08;;;;;;;20.33;47.04;95692.97;4968886;28;20605;-79
2022/08/03 04:53:30;;;;;;;3.20;2.20;;;;;;;20.55;46.86;95703.31;4970416;28;20207;-78
2022/08/03 04:56:03;;;;;;;3.42;2.05;;;;;;;22.19;43.40;95700.94;4970941;28;20222;-77
2022/08/03 04:58:28;;;;;;;4.45;2.08;;;;;;;25.03;37.91;95706.13;4970715;28;20184;-76
2022/08/03 05:00:53;;;;;;;2.25;1.90;;;;;;;27.40;34.02;95709.53;4974423;28;20192;-78
2022/08/03 05:03:19;;;;;;;2.72;2.10;;;;;;;29.09;29.34;95711.78;4984159;28;20231;-79
2022/08/03 05:05:44;;;;;;;4.63;1.80;;;;;;;30.83;27.61;95719.09;4971695;28;20184;-79
2022/08/03 05:08:09;;;;;;;3.70;1.90;;;;;;;31.39;26.63;95727.00;4980112;28;20416;-79
2022/08/03 05:10:34;;;;;;;2.00;1.75;;;;;;;31.74;25.45;95720.69;4952800;28;20188;-78
2022/08/03 05:13:00;;;;;;;2.80;2.22;;;;;;;32.47;24.65;95725.31;4972712;28;20232;-79
2022/08/03 05:15:25;;;;;;;2.00;1.90;;;;;;;33.10;24.59;95720.69;4969664;28;20585;-79
2022/08/03 05:17:50;;;;;;;1.92;1.73;;;;;;;33.44;23.49;95723.28;4971298;28;20192;-79
2022/08/03 05:20:16;;;;;;;2.88;1.80;;;;;;;34.41;22.05;95729.25;4968201;28;20184;-80
2022/08/03 05:22:41;;;;;;;2.60;2.05;;;;;;;34.12;22.25;95724.81;4993371;28;20219;-79
2022/08/03 05:25:06;;;;;;;2.35;2.10;;;;;;;32.62;24.32;95727.88;4978209;28;20190;-79
2022/08/03 05:27:32;;;;;;;2.20;1.90;;;;;;;33.72;23.78;95731.56;4984996;28;20231;-80
2022/08/03 05:29:57;;;;;;;2.28;1.95;;;;;;;32.38;25.12;95731.31;4987076;28;20191;-79
2022/08/03 05:32:23;;;;;;;3.67;2.22;;;;;;;34.39;22.58;95734.13;4977175;28;20184;-80
2022/08/03 05:34:48;;;;;;;2.58;2.10;;;;;;;34.84;22.33;95724.47;4950281;28;20231;-80
2022/08/03 05:37:13;;;;;;;2.30;1.92;;;;;;;33.65;23.78;95725.72;4986082;28;20207;-78
2022/08/03 05:39:39;;;;;;;2.20;2.05;;;;;;;32.29;24.64;95724.88;4968079;28;20213;-80
2022/08/03 05:42:04;;;;;;;3.28;2.00;;;;;;;32.28;25.35;95728.66;4965188;28;20584;-80
2022/08/03 05:44:30;;;;;;;5.20;2.15;;;;;;;32.33;25.50;95727.84;4968773;28;20204;-80
2022/08/03 05:46:56;;;;;;;2.28;2.08;;;;;;;33.54;24.08;95730.44;4976309;28;20529;-79
2022/08/03 05:49:22;;;;;;;4.30;2.05;;;;;;;33.78;23.36;95735.78;4967548;28;20672;-78
2022/08/03 05:51:47;;;;;;;2.97;2.30;;;;;;;32.81;24.19;95731.47;4952205;28;20643;-80
2022/08/03 05:54:12;;;;;;;2.95;2.20;;;;;;;33.77;23.78;95728.81;4983431;28;20294;-80
2022/08/03 05:56:39;;;;;;;3.22;1.90;;;;;;;33.04;23.94;95732.59;4950900;28;20515;-79
2022/08/03 05:59:05;;;;;;;3.17;1.92;;;;;;;33.80;23.09;95737.09;4968437;28;20188;-79
2022/08/03 06:01:31;;;;;;;2.40;1.80;;;;;;;35.22;21.47;95735.13;4971963;28;20184;-78
2022/08/03 06:03:57;;;;;;;3.80;1.90;;;;;;;35.67;20.69;95745.03;4967167;28;20250;-80
2022/08/03 06:06:22;;;;;;;2.63;2.00;;;;;;;35.78;20.86;95739.41;4977165;28;20183;-79
2022/08/03 06:08:47;;;;;;;3.05;2.25;;;;;;;35.60;21.45;95735.75;4966211;28;20187;-80
2022/08/03 06:11:13;;;;;;;2.45;1.88;;;;;;;35.58;21.29;95735.25;4967828;28;20671;-79
2022/08/03 06:13:39;;;;;;;3.17;1.92;;;;;;;35.96;20.65;95738.53;4984634;28;20684;-80
2022/08/03 06:16:04;;;;;;;2.60;2.00;;;;;;;35.28;21.72;95736.66;4973738;28;20188;-79
2022/08/03 06:18:29;;;;;;;3.08;2.47;;;;;;;36.46;19.88;95733.84;4967316;28;20187;-78
2022/08/03 06:20:55;;;;;;;3.20;2.20;;;;;;;36.52;20.63;95740.75;4984256;28;20299;-79
2022/08/03 06:23:20;;;;;;;1.88;1.77;;;;;;;38.73;18.08;95739.63;4966179;28;20620;-80
2022/08/03 06:25:46;;;;;;;2.10;2.00;;;;;;;36.08;21.05;95733.38;4968003;28;20727;-79
2022/08/03 06:28:12;;;;;;;2.55;2.10;;;;;;;37.89;18.94;95736.25;4974767;28;20195;-78
2022/08/03 06:30:38;;;;;;;2.92;2.30;;;;;;;38.87;17.92;95734.78;4976516;28;20183;-79
2022/08/03 06:33:03;;;;;;;2.75;2.20;;;;;;;35.23;21.15;95732.13;4982448;28;20211;-78
2022/08/03 06:35:29;;;;;;;3.35;1.95;;;;;;;37.01;20.08;95732.75;4966567;28;20560;-78
2022/08/03 06:37:54;;;;;;;2.83;2.05;;;;;;;38.22;18.72;95733.09;4984361;28;20203;-78
2022/08/03 06:40:30;;;;;;;2.85;1.95;;;;;;;35.90;20.84;95729.72;4976798;28;20202;-77
2022/08/03 06:42:57;;;;;;;3.85;1.80;;;;;;;37.75;18.69;95738.28;4988812;28;20212;-78
2022/08/03 06:45:23;;;;;;;2.00;1.90;;;;;;;38.21;18.50;95739.63;4967220;28;20271;-78
2022/08/03 06:48:05;;;;;;;2.05;1.95;;;;;;;36.25;21.16;95735.41;4977235;28;20212;-77
2022/08/03 06:50:32;;;;;;;2.10;1.90;;;;;;;36.88;20.50;95739.06;4960997;28;20194;-79
2022/08/03 06:52:57;;;;;;;1.88;1.40;;;;;;;36.62;21.08;95741.59;4952967;28;20207;-78
2022/08/03 06:55:23;;;;;;;1.70;1.60;;;;;;;37.95;19.39;95743.13;4970566;28;20191;-78
2022/08/03 06:57:48;;;;;;;2.63;1.70;;;;;;;36.99;20.66;95737.69;4976731;28;20184;-77
2022/08/03 07:00:13;;;;;;;1.70;1.60;;;;;;;37.47;20.48;95740.47;4987324;28;20227;-79
2022/08/03 07:02:39;;;;;;;1.65;1.55;;;;;;;38.45;19.25;95744.59;4971049;28;20222;-78
2022/08/03 07:05:05;;;;;;;2.00;1.60;;;;;;;37.15;20.78;95747.00;4968924;28;20180;-78
2022/08/03 07:07:31;;;;;;;2.35;1.88;;;;;;;37.85;20.04;95753.47;4987923;28;20671;-78
2022/08/03 07:09:56;;;;;;;2.17;1.70;;;;;;;37.21;20.88;95753.88;4971223;28;20268;-78
2022/08/03 07:12:21;;;;;;;1.60;1.50;;;;;;;37.76;20.20;95748.03;4968670;28;20191;-78
2022/08/03 07:14:47;;;;;;;1.70;1.60;;;;;;;36.03;22.21;95755.91;4953814;28;20200;-78
2022/08/03 07:17:12;;;;;;;2.65;1.50;;;;;;;36.65;21.47;95754.50;4970522;28;20187;-79
2022/08/03 07:19:40;;;;;;;1.50;1.40;;;;;;;37.20;20.96;95749.59;4952304;28;20185;-78
2022/08/03 07:22:07;;;;;;;1.90;1.38;;;;;;;36.14;22.34;95745.69;4970513;28;20203;-79
2022/08/03 07:24:32;;;;;;;1.90;1.52;;;;;;;35.23;23.74;95740.22;4985772;28;20216;-78
2022/08/03 07:26:58;;;;;;;1.25;1.15;;;;;;;35.84;22.69;95741.72;4967967;28;20540;-78
2022/08/03 07:29:23;;;;;;;3.65;1.52;;;;;;;35.85;22.56;95743.31;4971918;28;20231;-78
2022/08/03 07:31:49;;;;;;;1.92;1.60;;;;;;;35.61;23.40;95751.66;4964312;28;20272;-77
2022/08/03 07:34:14;;;;;;;2.10;1.50;;;;;;;35.46;23.51;95746.56;4963666;28;20223;-78
2022/08/03 07:36:39;;;;;;;1.85;1.23;;;;;;;34.43;24.58;95752.13;4967575;28;20223;-78
2022/08/03 07:39:05;;;;;;;1.35;1.17;;;;;;;34.87;24.43;95746.25;4978251;28;20605;-78
2022/08/03 07:41:30;;;;;;;1.42;1.33;;;;;;;34.91;24.11;95746.50;4951837;28;20708;-77
2022/08/03 07:43:56;;;;;;;2.63;1.70;;;;;;;34.78;24.40;95752.63;4969946;28;20279;-77
2022/08/03 07:46:21;;;;;;;1.60;1.50;;;;;;;32.96;26.42;95752.06;4986299;28;20196;-78
2022/08/03 07:48:46;;;;;;;2.75;1.35;;;;;;;34.16;25.49;95758.16;4968348;28;20247;-78
2022/08/03 07:51:11;;;;;;;1.60;1.48;;;;;;;32.78;27.52;95750.88;4977750;28;20521;-79
2022/08/03 07:53:37;;;;;;;1.40;1.30;;;;;;;33.32;26.33;95749.00;4967843;28;20215;-77
2022/08/03 07:56:02;;;;;;;3.42;1.40;;;;;;;32.44;27.84;95750.09;4960842;28;20188;-77
2022/08/03 07:58:28;;;;;;;2.67;1.45;;;;;;;33.03;26.91;95754.41;4984618;28;20195;-77
2022/08/03 08:00:53;;;;;;;1.98;1.60;;;;;;;32.11;28.61;95749.75;4997700;28;20196;-78
2022/08/03 08:03:18;;;;;;;1.55;1.45;;;;;;;33.06;26.71;95751.16;4993085;28;20216;-77
2022/08/03 08:05:44;;;;;;;1.70;1.50;;;;;;;32.23;27.85;95750.19;4987183;28;20252;-78
2022/08/03 08:08:09;;;;;;;1.50;1.40;;;;;;;31.87;28.81;95748.81;4986590;28;20193;-76
2022/08/03 08:10:35;;;;;;;3.35;1.80;;;;;;;31.10;29.43;95741.03;4983669;28;20211;-77
2022/08/03 08:13:02;;;;;;;2.58;1.65;;;;;;;30.99;29.63;95742.13;4970455;28;20237;-77
2022/08/03 08:15:27;;;;;;;1.30;1.20;;;;;;;30.21;30.39;95742.41;4978790;28;20188;-77
2022/08/03 08:17:54;;;;;;;1.83;1.73;;;;;;;30.44;30.57;95730.38;4952333;28;20611;-78
2022/08/03 08:20:23;;;;;;;3.35;1.73;;;;;;;30.41;30.76;95733.59;4968527;28;20184;-78
2022/08/03 08:22:48;;;;;;;2.33;1.50;;;;;;;30.41;30.85;95728.22;4967782;28;20239;-77
2022/08/03 08:25:14;;;;;;;2.17;1.63;;;;;;;30.13;31.29;95730.38;4970199;28;20270;-79
2022/08/03 08:27:47;;;;;;;2.50;1.50;;;;;;;30.15;31.21;95724.75;4971280;28;20227;-78
2022/08/03 08:30:14;;;;;;;2.60;1.60;;;;;;;29.89;31.68;95727.34;4971779;28;20180;-79
2022/08/03 08:32:40;;;;;;;2.53;1.60;;;;;;;29.36;32.62;95727.69;4977952;28;20207;-78
2022/08/03 08:35:07;;;;;;;2.50;1.70;;;;;;;29.45;32.94;95734.16;4951826;28;20240;-78
2022/08/03 08:37:32;;;;;;;1.67;1.50;;;;;;;30.12;31.26;95734.09;4969788;28;20548;-79
2022/08/03 08:39:58;;;;;;;1.90;1.10;;;;;;;29.77;31.64;95737.50;4970055;28;20192;-77
2022/08/03 08:42:24;;;;;;;1.73;1.63;;;;;;;29.67;31.58;95725.94;4952963;28;20205;-77
2022/08/03 08:44:49;;;;;;;5.13;1.83;;;;;;;28.98;32.19;95725.13;4953457;28;20195;-78
2022/08/03 08:47:19;;;;;;;2.22;1.70;;;;;;;29.47;32.02;95727.47;4988523;28;20250;-78
2022/08/03 08:49:45;;;;;;;1.75;1.65;;;;;;;29.49;32.70;95729.91;4967810;28;20664;-79
2022/08/03 08:52:12;;;;;;;1.85;1.75;;;;;;;29.89;31.94;95734.56;4977691;28;20274;-79
2022/08/03 08:54:39;;;;;;;5.22;1.50;;;;;;;30.45;30.90;95730.09;4976866;28;20215;-79
2022/08/03 08:57:05;;;;;;;2.90;1.92;;;;;;;30.51;31.14;95725.53;4968308;28;20176;-79
2022/08/03 08:59:34;;;;;;;2.33;1.55;;;;;;;30.53;31.00;95734.13;4969190;28;20188;-79
2022/08/03 09:01:59;;;;;;;3.30;1.70;;;;;;;30.30;30.55;95729.28;4969858;28;20570;-78
2022/08/03 09:04:26;;;;;;;1.65;1.55;;;;;;;30.36;30.64;95725.53;4991572;28;20204;-79
2022/08/03 09:06:51;;;;;;;2.03;1.75;;;;;;;30.65;30.29;95725.81;4985408;28;20187;-78
2022/08/03 09:09:16;;;;;;;2.67;1.83;;;;;;;30.41;30.83;95728.22;4968776;28;20275;-78
2022/08/03 09:11:42;;;;;;;1.67;1.58;;;;;;;30.27;31.19;95722.59;4967562;28;20257;-78
2022/08/03 09:14:08;;;;;;;1.77;1.52;;;;;;;30.27;30.97;95729.81;4992178;28;20222;-78
2022/08/03 09:16:34;;;;;;;2.05;1.85;;;;;;;29.73;31.85;95725.69;4987217;28;20180;-79
2022/08/03 09:19:11;;;;;;;2.20;2.00;;;;;;;29.77;32.42;95734.00;4950578;28;20578;-78
2022/08/03 09:21:37;;;;;;;3.38;2.13;;;;;;;29.90;31.86;95736.19;4951267;28;20188;-77
2022/08/03 09:24:04;;;;;;;3.50;2.00;;;;;;;29.89;32.00;95726.53;4986235;28;20278;-78
2022/08/03 09:26:30;;;;;;;2.33;1.67;;;;;;;29.77;31.34;95728.63;4968354;28;20184;-78
2022/08/03 09:29:09;;;;;;;1.80;1.70;;;;;;;30.20;31.37;95721.25;4974735;28;20735;-78
2022/08/03 09:31:36;;;;;;;2.40;1.80;;;;;;;30.15;30.77;95725.53;4974771;28;20247;-78
2022/08/03 09:34:06;;;;;;;3.63;1.80;;;;;;;30.64;30.73;95724.97;4950656;28;20205;-78
2022/08/03 09:36:40;;;;;;;3.75;1.80;;;;;;;30.44;30.80;95722.31;4971804;28;20192;-77
2022/08/03 09:39:10;;;;;;;2.40;2.20;;;;;;;30.37;31.12;95719.91;4950956;28;20716;-78
2022/08/03 09:41:36;;;;;;;2.60;2.10;;;;;;;30.50;30.17;95726.63;4968459;28;20203;-77
2022/08/03 09:44:01;;;;;;;3.00;1.77;;;;;;;30.68;30.08;95718.06;4968142;28;20652;-78
2022/08/03 09:46:30;;;;;;;4.63;2.03;;;;;;;30.93;30.18;95716.41;4969645;28;20202;-78
2022/08/03 09:49:08;;;;;;;2.55;1.75;;;;;;;30.54;30.35;95725.00;4968059;28;20527;-78
2022/08/03 09:51:33;;;;;;;3.80;1.55;;;;;;;30.91;29.14;95726.56;4965933;28;20184;-79
2022/08/03 09:54:02;;;;;;;1.65;1.50;;;;;;;31.46;27.66;95728.31;4966778;28;21016;-77
2022/08/03 09:56:45;;;;;;;1.80;1.60;;;;;;;31.59;27.58;95724.22;4976913;28;20660;-77
2022/08/03 09:59:12;;;;;;;1.70;1.33;;;;;;;31.26;27.77;95715.78;4968593;28;20180;-78
2022/08/03 10:01:40;;;;;;;1.98;1.75;;;;;;;31.21;28.33;95718.50;4950433;28;20211;-78
2022/08/03 10:04:11;;;;;;;1.95;1.75;;;;;;;31.23;28.47;95716.34;4967152;28;20239;-78
2022/08/03 10:06:37;;;;;;;2.05;1.92;;;;;;;31.42;28.35;95721.09;4976575;28;20190;-78
2022/08/03 10:09:14;;;;;;;4.28;1.92;;;;;;;31.56;28.18;95719.44;4966044;28;20192;-78
2022/08/03 10:11:40;;;;;;;2.90;1.80;;;;;;;31.77;27.13;95726.31;4976899;28;20243;-79
2022/08/03 10:14:07;;;;;;;2.05;1.90;;;;;;;32.03;27.30;95718.09;4951243;28;20578;-78
2022/08/03 10:16:35;;;;;;;3.03;1.67;;;;;;;31.95;26.93;95714.13;4961489;28;20199;-78
2022/08/03 10:19:02;;;;;;;1.55;1.45;;;;;;;31.66;27.15;95714.00;4966604;28;20281;-78
2022/08/03 10:21:33;;;;;;;1.92;1.60;;;;;;;31.81;26.29;95705.09;4966440;28;20263;-78
2022/08/03 10:24:01;;;;;;;1.88;1.70;;;;;;;31.70;26.08;95708.88;4975430;28;20211;-79
2022/08/03 10:26:30;;;;;;;2.13;1.92;;;;;;;31.99;26.42;95707.13;4967520;28;20177;-77
2022/08/03 10:28:57;;;;;;;1.58;1.48;;;;;;;32.11;25.65;95698.72;4977155;28;20196;-78
2022/08/03 10:31:22;;;;;;;4.28;1.70;;;;;;;31.64;25.91;95697.38;4968175;28;20211;-78
2022/08/03 10:33:49;;;;;;;2.03;1.90;;;;;;;31.95;25.98;95703.38;4966610;28;20260;-77
2022/08/03 10:36:15;;;;;;;5.63;1.73;;;;;;;32.07;26.71;95689.59;4975769;28;20206;-78
2022/08/03 10:38:51;;;;;;;1.52;1.42;;;;;;;32.20;26.57;95696.22;4969057;28;20656;-78
2022/08/03 10:41:19;;;;;;;1.70;1.60;;;;;;;32.03;26.92;95683.97;4966096;28;20195;-79
2022/08/03 10:44:08;;;;;;;2.38;1.63;;;;;;;32.15;26.42;95686.31;4950814;28;20215;-79
2022/08/03 10:46:34;;;;;;;1.63;1.40;;;;;;;32.37;26.40;95686.69;4968924;28;20195;-78
2022/08/03 10:49:00;;;;;;;1.55;1.45;;;;;;;32.49;26.14;95685.53;4949917;28;20558;-78
2022/08/03 10:51:30;;;;;;;1.92;1.40;;;;;;;32.14;25.41;95688.19;4968113;28;20258;-79
2022/08/03 10:53:56;;;;;;;2.13;1.50;;;;;;;32.26;25.00;95685.16;4966796;28;20251;-78
2022/08/03 10:59:19;;;;;;;6.38;1.60;;;;;;;32.51;26.25;95677.97;4984645;28;20198;-78
2022/08/03 11:01:50;;;;;;;2.17;1.73;;;;;;;32.45;25.44;95676.44;4966386;28;20218;-77
2022/08/03 11:04:20;;;;;;;2.20;1.52;;;;;;;32.50;25.28;95662.94;4998679;28;20204;-79
2022/08/03 11:06:47;;;;;;;5.20;1.70;;;;;;;32.13;25.35;95664.31;4970157;28;20775;-79
2022/08/03 11:09:12;;;;;;;2.70;1.33;;;;;;;32.09;25.65;95663.28;4976608;28;20180;-79
2022/08/03 11:11:39;;;;;;;2.67;1.50;;;;;;;32.54;24.31;95658.59;4983922;28;20211;-78
2022/08/03 11:14:08;;;;;;;1.55;1.45;;;;;;;32.31;25.28;95663.63;4973635;28;20617;-79
2022/08/03 11:16:46;;;;;;;2.80;1.60;;;;;;;32.66;25.18;95661.69;4985545;28;20532;-78
2022/08/03 11:19:14;;;;;;;2.53;1.42;;;;;;;32.71;25.00;95667.03;4952037;28;20279;-78
2022/08/03 11:21:49;;;;;;;3.75;1.63;;;;;;;32.60;25.02;95652.91;4955545;28;20195;-78
2022/08/03 11:24:36;;;;;;;2.10;1.80;;;;;;;33.03;24.60;95658.34;4984621;28;20218;-79
2022/08/03 11:27:13;;;;;;;1.60;1.50;;;;;;;33.15;23.92;95664.16;4967488;28;20185;-78
2022/08/03 11:29:57;;;;;;;2.25;1.40;;;;;;;33.10;24.49;95649.94;4983228;28;20180;-77
2022/08/03 11:32:45;;;;;;;2.55;1.73;;;;;;;32.63;24.85;95648.84;4966636;28;20203;-78
2022/08/03 11:35:22;;;;;;;1.40;1.30;;;;;;;32.68;24.74;95648.75;4988009;28;20240;-78
2022/08/03 11:37:56;;;;;;;1.95;1.50;;;;;;;32.85;25.24;95646.47;4968416;28;20188;-77
2022/08/03 11:40:43;;;;;;;2.00;1.50;;;;;;;33.31;24.26;95654.00;4988143;28;20659;-78
2022/08/03 11:43:20;;;;;;;3.28;1.50;;;;;;;33.21;24.22;95649.53;4977560;28;20716;-76
2022/08/03 11:46:11;;;;;;;2.17;1.70;;;;;;;33.64;23.79;95657.59;4987283;28;20282;-77